sensor_id;sensor_type;location;lat;lon;timestamp;pressure;altitude;pressure_sealevel;temperature;humidity
64298;BME280;50639;53.270;7.956;2023-12-07T00:01:08;101755.88;;;2.53;87.16
64298;BME280;50639;53.270;7.956;2023-12-07T00:03:34;101752.41;;;2.57;87.69
64298;BME280;50639;53.270;7.956;2023-12-07T00:05:59;101754.94;;;2.58;87.01
64298;BME280;50639;53.270;7.956;2023-12-07T00:08:25;101754.00;;;2.64;87.34
64298;BME280;50639;53.270;7.956;2023-12-07T00:10:50;101757.41;;;2.66;87.26
64298;BME280;50639;53.270;7.956;2023-12-07T00:13:16;101746.34;;;2.64;86.95
64298;BME280;50639;53.270;7.956;2023-12-07T00:15:42;101749.81;;;2.60;86.94
64298;BME280;50639;53.270;7.956;2023-12-07T00:18:07;101747.31;;;2.55;87.36
64298;BME280;50639;53.270;7.956;2023-12-07T00:20:33;101744.75;;;2.55;87.11
64298;BME280;50639;53.270;7.956;2023-12-07T00:22:58;101740.53;;;2.54;87.10
64298;BME280;50639;53.270;7.956;2023-12-07T00:25:24;101745.59;;;2.57;87.44
64298;BME280;50639;53.270;7.956;2023-12-07T00:27:49;101758.34;;;2.59;87.07
64298;BME280;50639;53.270;7.956;2023-12-07T00:30:15;101758.38;;;2.56;86.93
64298;BME280;50639;53.270;7.956;2023-12-07T00:32:41;101760.91;;;2.57;86.88
64298;BME280;50639;53.270;7.956;2023-12-07T00:35:13;101760.09;;;2.55;87.04
64298;BME280;50639;53.270;7.956;2023-12-07T00:37:39;101761.78;;;2.56;87.21
64298;BME280;50639;53.270;7.956;2023-12-07T00:40:05;101766.84;;;2.61;86.85
64298;BME280;50639;53.270;7.956;2023-12-07T00:42:31;101769.41;;;2.62;86.54
64298;BME280;50639;53.270;7.956;2023-12-07T00:44:56;101772.84;;;2.58;86.98
64298;BME280;50639;53.270;7.956;2023-12-07T00:47:22;101771.97;;;2.59;87.15
64298;BME280;50639;53.270;7.956;2023-12-07T00:49:47;101779.66;;;2.61;87.29
64298;BME280;50639;53.270;7.956;2023-12-07T00:52:13;101771.97;;;2.59;87.20
64298;BME280;50639;53.270;7.956;2023-12-07T00:54:39;101774.50;;;2.62;86.96
64298;BME280;50639;53.270;7.956;2023-12-07T00:57:07;101778.78;;;2.60;87.29
64298;BME280;50639;53.270;7.956;2023-12-07T00:59:33;101788.19;;;2.58;87.29
64298;BME280;50639;53.270;7.956;2023-12-07T01:04:29;101785.66;;;2.55;87.06
64298;BME280;50639;53.270;7.956;2023-12-07T01:06:55;101795.00;;;2.59;87.53
64298;BME280;50639;53.270;7.956;2023-12-07T01:09:21;101792.44;;;2.59;87.53
64298;BME280;50639;53.270;7.956;2023-12-07T01:11:47;101800.94;;;2.61;86.90
64298;BME280;50639;53.270;7.956;2023-12-07T01:14:13;101797.47;;;2.65;87.16
64298;BME280;50639;53.270;7.956;2023-12-07T01:16:38;101800.91;;;2.64;87.12
64298;BME280;50639;53.270;7.956;2023-12-07T01:19:04;101808.56;;;2.64;87.55
64298;BME280;50639;53.270;7.956;2023-12-07T01:21:29;101805.16;;;2.65;87.40
64298;BME280;50639;53.270;7.956;2023-12-07T01:23:54;101812.84;;;2.64;87.42
64298;BME280;50639;53.270;7.956;2023-12-07T01:26:20;101812.84;;;2.64;87.52
64298;BME280;50639;53.270;7.956;2023-12-07T01:28:46;101811.09;;;2.66;87.18
64298;BME280;50639;53.270;7.956;2023-12-07T01:31:11;101806.06;;;2.63;87.18
64298;BME280;50639;53.270;7.956;2023-12-07T01:33:36;101810.28;;;2.64;87.52
64298;BME280;50639;53.270;7.956;2023-12-07T01:36:02;101812.84;;;2.64;87.09
64298;BME280;50639;53.270;7.956;2023-12-07T01:38:27;101812.84;;;2.64;87.75
64298;BME280;50639;53.270;7.956;2023-12-07T01:40:53;101807.72;;;2.64;87.71
64298;BME280;50639;53.270;7.956;2023-12-07T01:43:19;101809.47;;;2.62;87.52
64298;BME280;50639;53.270;7.956;2023-12-07T01:45:46;101810.34;;;2.59;87.54
64298;BME280;50639;53.270;7.956;2023-12-07T01:48:12;101815.47;;;2.59;87.34
64298;BME280;50639;53.270;7.956;2023-12-07T01:50:38;101818.00;;;2.59;87.92
64298;BME280;50639;53.270;7.956;2023-12-07T01:53:04;101812.88;;;2.61;87.69
64298;BME280;50639;53.270;7.956;2023-12-07T01:55:31;101813.72;;;2.63;87.66
64298;BME280;50639;53.270;7.956;2023-12-07T01:57:57;101818.78;;;2.64;87.81
64298;BME280;50639;53.270;7.956;2023-12-07T02:00:22;101815.34;;;2.69;87.39
64298;BME280;50639;53.270;7.956;2023-12-07T02:02:49;101823.88;;;2.69;87.98
64298;BME280;50639;53.270;7.956;2023-12-07T02:05:16;101811.84;;;2.76;87.16
64298;BME280;50639;53.270;7.956;2023-12-07T02:07:41;101814.41;;;2.77;87.65
64298;BME280;50639;53.270;7.956;2023-12-07T02:10:08;101810.97;;;2.78;87.75
64298;BME280;50639;53.270;7.956;2023-12-07T02:12:33;101816.09;;;2.78;87.67
64298;BME280;50639;53.270;7.956;2023-12-07T02:15:01;101814.41;;;2.77;87.43
64298;BME280;50639;53.270;7.956;2023-12-07T02:20:04;101824.69;;;2.73;86.86
64298;BME280;50639;53.270;7.956;2023-12-07T02:22:40;101826.41;;;2.71;87.33
64298;BME280;50639;53.270;7.956;2023-12-07T02:25:07;101822.19;;;2.68;87.04
64298;BME280;50639;53.270;7.956;2023-12-07T02:27:38;101820.47;;;2.69;87.68
64298;BME280;50639;53.270;7.956;2023-12-07T02:30:06;101817.84;;;2.73;87.13
64298;BME280;50639;53.270;7.956;2023-12-07T02:32:32;101822.09;;;2.74;87.20
64298;BME280;50639;53.270;7.956;2023-12-07T02:34:58;101829.75;;;2.74;86.90
64298;BME280;50639;53.270;7.956;2023-12-07T02:37:27;101828.91;;;2.74;87.20
64298;BME280;50639;53.270;7.956;2023-12-07T02:39:55;101831.47;;;2.74;87.41
64298;BME280;50639;53.270;7.956;2023-12-07T02:42:21;101827.25;;;2.73;86.79
64298;BME280;50639;53.270;7.956;2023-12-07T02:44:48;101823.06;;;2.64;87.32
64298;BME280;50639;53.270;7.956;2023-12-07T02:47:14;101819.69;;;2.63;87.71
64298;BME280;50639;53.270;7.956;2023-12-07T02:49:39;101815.47;;;2.59;87.84
64298;BME280;50639;53.270;7.956;2023-12-07T02:52:05;101827.38;;;2.62;87.82
64298;BME280;50639;53.270;7.956;2023-12-07T02:54:30;101824.75;;;2.65;87.47
64298;BME280;50639;53.270;7.956;2023-12-07T02:56:56;101831.56;;;2.66;87.57
64298;BME280;50639;53.270;7.956;2023-12-07T02:59:21;101835.78;;;2.70;87.69
64298;BME280;50639;53.270;7.956;2023-12-07T03:01:46;101832.31;;;2.74;87.37
64298;BME280;50639;53.270;7.956;2023-12-07T03:04:12;101841.69;;;2.77;87.68
64298;BME280;50639;53.270;7.956;2023-12-07T03:06:37;101840.00;;;2.74;87.19
64298;BME280;50639;53.270;7.956;2023-12-07T03:09:02;101840.00;;;2.74;87.40
64298;BME280;50639;53.270;7.956;2023-12-07T03:11:28;101846.03;;;2.72;86.89
64298;BME280;50639;53.270;7.956;2023-12-07T03:13:53;101840.84;;;2.75;87.75
64298;BME280;50639;53.270;7.956;2023-12-07T03:16:19;101837.47;;;2.73;87.20
64298;BME280;50639;53.270;7.956;2023-12-07T03:18:44;101840.03;;;2.73;87.55
64298;BME280;50639;53.270;7.956;2023-12-07T03:21:10;101845.06;;;2.79;87.55
64298;BME280;50639;53.270;7.956;2023-12-07T03:23:35;101839.13;;;2.77;87.15
64298;BME280;50639;53.270;7.956;2023-12-07T03:26:01;101838.25;;;2.81;87.75
64298;BME280;50639;53.270;7.956;2023-12-07T03:28:26;101845.84;;;2.84;86.78
64298;BME280;50639;53.270;7.956;2023-12-07T03:30:52;101847.56;;;2.85;87.16
64298;BME280;50639;53.270;7.956;2023-12-07T03:33:17;101847.50;;;2.89;87.20
64298;BME280;50639;53.270;7.956;2023-12-07T03:35:42;101849.19;;;2.90;87.64
64298;BME280;50639;53.270;7.956;2023-12-07T03:38:08;101836.44;;;2.89;87.58
64298;BME280;50639;53.270;7.956;2023-12-07T03:40:33;101847.53;;;2.88;87.12
64298;BME280;50639;53.270;7.956;2023-12-07T03:42:59;101845.81;;;2.88;87.24
64298;BME280;50639;53.270;7.956;2023-12-07T03:45:24;101854.28;;;2.90;86.91
64298;BME280;50639;53.270;7.956;2023-12-07T03:47:50;101851.78;;;2.89;87.29
64298;BME280;50639;53.270;7.956;2023-12-07T03:50:15;101845.81;;;2.90;86.91
64298;BME280;50639;53.270;7.956;2023-12-07T03:52:40;101854.38;;;2.83;87.23
64298;BME280;50639;53.270;7.956;2023-12-07T03:55:06;101851.78;;;2.89;87.10
64298;BME280;50639;53.270;7.956;2023-12-07T03:57:32;101853.50;;;2.88;86.64
64298;BME280;50639;53.270;7.956;2023-12-07T03:59:57;101844.94;;;2.89;87.27
64298;BME280;50639;53.270;7.956;2023-12-07T04:02:22;101845.81;;;2.90;86.73
64298;BME280;50639;53.270;7.956;2023-12-07T04:04:48;101841.50;;;2.90;87.41
64298;BME280;50639;53.270;7.956;2023-12-07T04:07:13;101839.78;;;2.91;87.21
64298;BME280;50639;53.270;7.956;2023-12-07T04:09:39;101838.13;;;2.90;87.15
64298;BME280;50639;53.270;7.956;2023-12-07T04:12:05;101835.56;;;2.90;86.94
64298;BME280;50639;53.270;7.956;2023-12-07T04:14:30;101839.03;;;2.84;87.28
64298;BME280;50639;53.270;7.956;2023-12-07T04:16:56;101836.59;;;2.74;86.95
64298;BME280;50639;53.270;7.956;2023-12-07T04:19:21;101845.94;;;2.76;86.72
64298;BME280;50639;53.270;7.956;2023-12-07T04:21:46;101850.28;;;2.73;86.99
64298;BME280;50639;53.270;7.956;2023-12-07T04:24:12;101851.13;;;2.72;86.79
64298;BME280;50639;53.270;7.956;2023-12-07T04:26:37;101851.94;;;2.74;86.45
64298;BME280;50639;53.270;7.956;2023-12-07T04:29:03;101848.59;;;2.70;87.31
64298;BME280;50639;53.270;7.956;2023-12-07T04:31:28;101845.16;;;2.71;87.20
64298;BME280;50639;53.270;7.956;2023-12-07T04:33:53;101852.84;;;2.73;86.76
64298;BME280;50639;53.270;7.956;2023-12-07T04:36:19;101853.69;;;2.70;87.32
64298;BME280;50639;53.270;7.956;2023-12-07T04:38:44;101853.69;;;2.72;87.31
64298;BME280;50639;53.270;7.956;2023-12-07T04:41:09;101856.19;;;2.75;86.60
64298;BME280;50639;53.270;7.956;2023-12-07T04:43:35;101865.56;;;2.74;86.60
64298;BME280;50639;53.270;7.956;2023-12-07T04:46:00;101866.44;;;2.73;87.02
64298;BME280;50639;53.270;7.956;2023-12-07T04:48:26;101870.75;;;2.71;86.97
64298;BME280;50639;53.270;7.956;2023-12-07T04:50:51;101871.56;;;2.73;87.16
64298;BME280;50639;53.270;7.956;2023-12-07T04:53:17;101872.44;;;2.72;86.97
64298;BME280;50639;53.270;7.956;2023-12-07T04:55:42;101866.41;;;2.76;87.07
64298;BME280;50639;53.270;7.956;2023-12-07T04:58:12;101864.66;;;2.81;86.92
64298;BME280;50639;53.270;7.956;2023-12-07T05:00:38;101870.59;;;2.82;87.39
64298;BME280;50639;53.270;7.956;2023-12-07T05:03:03;101878.31;;;2.80;86.63
64298;BME280;50639;53.270;7.956;2023-12-07T05:05:29;101872.38;;;2.75;86.54
64298;BME280;50639;53.270;7.956;2023-12-07T05:07:54;101878.34;;;2.76;86.66
64298;BME280;50639;53.270;7.956;2023-12-07T05:10:20;101869.91;;;2.71;86.86
64298;BME280;50639;53.270;7.956;2023-12-07T05:12:45;101875.88;;;2.70;86.58
64298;BME280;50639;53.270;7.956;2023-12-07T05:15:11;101877.59;;;2.69;86.80
64298;BME280;50639;53.270;7.956;2023-12-07T05:17:36;101884.41;;;2.70;87.24
64298;BME280;50639;53.270;7.956;2023-12-07T05:20:02;101879.22;;;2.73;86.69
64298;BME280;50639;53.270;7.956;2023-12-07T05:22:28;101874.16;;;2.72;87.16
64298;BME280;50639;53.270;7.956;2023-12-07T05:24:54;101874.94;;;2.77;86.94
64298;BME280;50639;53.270;7.956;2023-12-07T05:27:19;101872.41;;;2.74;87.00
64298;BME280;50639;53.270;7.956;2023-12-07T05:29:45;101864.81;;;2.68;87.34
64298;BME280;50639;53.270;7.956;2023-12-07T05:32:10;101864.78;;;2.72;87.26
64298;BME280;50639;53.270;7.956;2023-12-07T05:34:36;101868.19;;;2.70;86.96
64298;BME280;50639;53.270;7.956;2023-12-07T05:37:01;101864.78;;;2.69;87.72
64298;BME280;50639;53.270;7.956;2023-12-07T05:39:27;101860.53;;;2.68;87.15
64298;BME280;50639;53.270;7.956;2023-12-07T05:41:52;101868.19;;;2.71;87.18
64298;BME280;50639;53.270;7.956;2023-12-07T05:44:18;101863.88;;;2.73;87.08
64298;BME280;50639;53.270;7.956;2023-12-07T05:46:47;101871.50;;;2.78;86.91
64298;BME280;50639;53.270;7.956;2023-12-07T05:49:12;101876.66;;;2.76;87.15
64298;BME280;50639;53.270;7.956;2023-12-07T05:51:38;101878.34;;;2.77;87.06
64298;BME280;50639;53.270;7.956;2023-12-07T05:54:03;101874.00;;;2.82;86.52
64298;BME280;50639;53.270;7.956;2023-12-07T05:56:29;101871.53;;;2.76;86.67
64298;BME280;50639;53.270;7.956;2023-12-07T05:58:56;101872.38;;;2.78;86.96
64298;BME280;50639;53.270;7.956;2023-12-07T06:01:22;101878.34;;;2.77;86.98
64298;BME280;50639;53.270;7.956;2023-12-07T06:03:47;101870.84;;;2.63;87.55
64298;BME280;50639;53.270;7.956;2023-12-07T06:06:13;101865.63;;;2.71;87.63
64298;BME280;50639;53.270;7.956;2023-12-07T06:08:38;101868.13;;;2.76;86.76
64298;BME280;50639;53.270;7.956;2023-12-07T06:11:04;101863.84;;;2.78;87.05
64298;BME280;50639;53.270;7.956;2023-12-07T06:13:30;101876.63;;;2.79;86.60
64298;BME280;50639;53.270;7.956;2023-12-07T06:15:56;101879.19;;;2.76;86.98
64298;BME280;50639;53.270;7.956;2023-12-07T06:18:21;101875.13;;;2.58;86.83
64298;BME280;50639;53.270;7.956;2023-12-07T06:20:47;101870.88;;;2.56;87.00
64298;BME280;50639;53.270;7.956;2023-12-07T06:23:12;101876.91;;;2.50;87.44
64298;BME280;50639;53.270;7.956;2023-12-07T06:25:38;101870.88;;;2.57;87.03
64298;BME280;50639;53.270;7.956;2023-12-07T06:28:04;101864.88;;;2.61;87.09
64298;BME280;50639;53.270;7.956;2023-12-07T06:30:30;101884.00;;;2.22;87.93
64298;BME280;50639;53.270;7.956;2023-12-07T06:32:55;101891.88;;;2.01;88.57
64298;BME280;50639;53.270;7.956;2023-12-07T06:35:21;101875.47;;;2.26;89.29
64298;BME280;50639;53.270;7.956;2023-12-07T06:37:46;101874.25;;;2.62;89.63
64298;BME280;50639;53.270;7.956;2023-12-07T06:40:12;101880.13;;;2.69;88.67
64298;BME280;50639;53.270;7.956;2023-12-07T06:42:37;101876.81;;;2.62;88.76
64298;BME280;50639;53.270;7.956;2023-12-07T06:45:03;101882.78;;;2.63;88.14
64298;BME280;50639;53.270;7.956;2023-12-07T06:47:29;101880.22;;;2.63;88.05
64298;BME280;50639;53.270;7.956;2023-12-07T06:49:55;101874.19;;;2.65;87.94
64298;BME280;50639;53.270;7.956;2023-12-07T06:52:23;101875.06;;;2.64;87.58
64298;BME280;50639;53.270;7.956;2023-12-07T06:54:49;101870.00;;;2.58;87.96
64298;BME280;50639;53.270;7.956;2023-12-07T06:57:14;101878.53;;;2.60;88.16
64298;BME280;50639;53.270;7.956;2023-12-07T06:59:40;101885.25;;;2.68;87.90
64298;BME280;50639;53.270;7.956;2023-12-07T07:02:08;101881.88;;;2.65;87.24
64298;BME280;50639;53.270;7.956;2023-12-07T07:04:33;101885.28;;;2.66;87.87
64298;BME280;50639;53.270;7.956;2023-12-07T07:06:59;101892.09;;;2.67;87.95
64298;BME280;50639;53.270;7.956;2023-12-07T07:09:24;101891.19;;;2.73;87.01
64298;BME280;50639;53.270;7.956;2023-12-07T07:11:50;101888.66;;;2.68;87.54
64298;BME280;50639;53.270;7.956;2023-12-07T07:14:16;101886.88;;;2.75;87.44
64298;BME280;50639;53.270;7.956;2023-12-07T07:16:42;101897.09;;;2.79;87.35
64298;BME280;50639;53.270;7.956;2023-12-07T07:19:07;101894.53;;;2.79;86.91
64298;BME280;50639;53.270;7.956;2023-12-07T07:21:33;101899.66;;;2.76;86.79
64298;BME280;50639;53.270;7.956;2023-12-07T07:23:59;101900.50;;;2.77;86.65
64298;BME280;50639;53.270;7.956;2023-12-07T07:26:25;101903.06;;;2.78;86.99
64298;BME280;50639;53.270;7.956;2023-12-07T07:28:51;101907.31;;;2.78;87.04
64298;BME280;50639;53.270;7.956;2023-12-07T07:31:17;101911.56;;;2.80;87.15
64298;BME280;50639;53.270;7.956;2023-12-07T07:33:43;101915.84;;;2.78;87.06
64298;BME280;50639;53.270;7.956;2023-12-07T07:36:09;101915.00;;;2.79;87.18
64298;BME280;50639;53.270;7.956;2023-12-07T07:38:34;101914.13;;;2.79;86.57
64298;BME280;50639;53.270;7.956;2023-12-07T07:41:00;101915.84;;;2.80;86.80
64298;BME280;50639;53.270;7.956;2023-12-07T07:43:25;101915.94;;;2.72;86.76
64298;BME280;50639;53.270;7.956;2023-12-07T07:45:51;101919.25;;;2.79;86.78
64298;BME280;50639;53.270;7.956;2023-12-07T07:48:16;101922.69;;;2.76;87.26
64298;BME280;50639;53.270;7.956;2023-12-07T07:50:42;101925.25;;;2.76;87.37
64298;BME280;50639;53.270;7.956;2023-12-07T07:53:07;101931.13;;;2.84;86.55
64298;BME280;50639;53.270;7.956;2023-12-07T07:55:32;101928.53;;;2.87;86.58
64298;BME280;50639;53.270;7.956;2023-12-07T07:57:58;101926.03;;;2.83;86.27
64298;BME280;50639;53.270;7.956;2023-12-07T08:00:23;101932.84;;;2.84;86.77
64298;BME280;50639;53.270;7.956;2023-12-07T08:02:51;101932.03;;;2.79;86.99
64298;BME280;50639;53.270;7.956;2023-12-07T08:05:17;101931.13;;;2.83;87.12
64298;BME280;50639;53.270;7.956;2023-12-07T08:07:42;101931.97;;;2.86;86.42
64298;BME280;50639;53.270;7.956;2023-12-07T08:10:08;101926.84;;;2.88;86.84
64298;BME280;50639;53.270;7.956;2023-12-07T08:12:34;101920.91;;;2.83;86.09
64298;BME280;50639;53.270;7.956;2023-12-07T08:15:00;101931.91;;;2.91;86.24
64298;BME280;50639;53.270;7.956;2023-12-07T08:17:26;101931.84;;;2.97;86.89
64298;BME280;50639;53.270;7.956;2023-12-07T08:19:52;101924.97;;;3.02;86.74
64298;BME280;50639;53.270;7.956;2023-12-07T08:22:17;101922.47;;;2.96;87.04
64298;BME280;50639;53.270;7.956;2023-12-07T08:24:43;101931.69;;;3.09;86.51
64298;BME280;50639;53.270;7.956;2023-12-07T08:27:09;101932.53;;;3.11;86.40
64298;BME280;50639;53.270;7.956;2023-12-07T08:29:34;101933.38;;;3.13;86.09
64298;BME280;50639;53.270;7.956;2023-12-07T08:32:00;101929.09;;;3.15;86.56
64298;BME280;50639;53.270;7.956;2023-12-07T08:34:26;101935.84;;;3.19;85.89
64298;BME280;50639;53.270;7.956;2023-12-07T08:36:51;101937.50;;;3.25;86.16
64298;BME280;50639;53.270;7.956;2023-12-07T08:39:16;101939.16;;;3.27;85.92
64298;BME280;50639;53.270;7.956;2023-12-07T08:41:42;101945.97;;;3.30;85.84
64298;BME280;50639;53.270;7.956;2023-12-07T08:44:07;101934.84;;;3.31;85.90
64298;BME280;50639;53.270;7.956;2023-12-07T08:46:33;101945.09;;;3.32;85.40
64298;BME280;50639;53.270;7.956;2023-12-07T08:48:59;101938.13;;;3.42;85.89
64298;BME280;50639;53.270;7.956;2023-12-07T08:51:28;101949.25;;;3.41;85.60
64298;BME280;50639;53.270;7.956;2023-12-07T08:53:53;101942.38;;;3.43;85.48
64298;BME280;50639;53.270;7.956;2023-12-07T08:56:19;101940.72;;;3.40;85.04
64298;BME280;50639;53.270;7.956;2023-12-07T08:58:45;101939.81;;;3.43;84.89
64298;BME280;50639;53.270;7.956;2023-12-07T09:01:10;101942.41;;;3.40;85.73
64298;BME280;50639;53.270;7.956;2023-12-07T09:03:36;101936.44;;;3.41;85.41
64298;BME280;50639;53.270;7.956;2023-12-07T09:06:05;101942.31;;;3.48;85.14
64298;BME280;50639;53.270;7.956;2023-12-07T09:08:32;101937.31;;;3.37;84.54
64298;BME280;50639;53.270;7.956;2023-12-07T09:10:57;101939.00;;;3.39;84.64
64298;BME280;50639;53.270;7.956;2023-12-07T09:13:22;101927.00;;;3.43;84.93
64298;BME280;50639;53.270;7.956;2023-12-07T09:15:48;101937.34;;;3.35;85.46
64298;BME280;50639;53.270;7.956;2023-12-07T09:18:13;101931.25;;;3.46;84.90
64298;BME280;50639;53.270;7.956;2023-12-07T09:20:39;101930.28;;;3.53;84.92
64298;BME280;50639;53.270;7.956;2023-12-07T09:23:12;101933.59;;;3.61;84.69
64298;BME280;50639;53.270;7.956;2023-12-07T09:25:38;101935.34;;;3.59;84.99
64298;BME280;50639;53.270;7.956;2023-12-07T09:28:04;101936.16;;;3.61;84.33
64298;BME280;50639;53.270;7.956;2023-12-07T09:30:30;101936.19;;;3.59;83.88
64298;BME280;50639;53.270;7.956;2023-12-07T09:32:55;101942.06;;;3.66;84.46
64298;BME280;50639;53.270;7.956;2023-12-07T09:35:20;101939.50;;;3.66;84.20
64298;BME280;50639;53.270;7.956;2023-12-07T09:37:48;101942.91;;;3.68;84.57
64298;BME280;50639;53.270;7.956;2023-12-07T09:40:21;101948.91;;;3.67;84.07
64298;BME280;50639;53.270;7.956;2023-12-07T09:42:47;101941.09;;;3.74;84.67
64298;BME280;50639;53.270;7.956;2023-12-07T09:45:14;101940.16;;;3.78;84.41
64298;BME280;50639;53.270;7.956;2023-12-07T09:47:42;101943.53;;;3.82;83.55
64298;BME280;50639;53.270;7.956;2023-12-07T09:50:08;101941.75;;;3.87;84.03
64298;BME280;50639;53.270;7.956;2023-12-07T09:52:35;101940.88;;;3.90;84.14
64298;BME280;50639;53.270;7.956;2023-12-07T09:55:04;101945.22;;;3.86;83.98
64298;BME280;50639;53.270;7.956;2023-12-07T09:57:31;101958.81;;;3.88;84.00
64298;BME280;50639;53.270;7.956;2023-12-07T09:59:56;101950.34;;;3.86;83.57
64298;BME280;50639;53.270;7.956;2023-12-07T10:02:22;101948.53;;;3.93;83.90
64298;BME280;50639;53.270;7.956;2023-12-07T10:04:49;101951.81;;;4.01;84.00
64298;BME280;50639;53.270;7.956;2023-12-07T10:07:14;101953.63;;;3.94;83.88
64298;BME280;50639;53.270;7.956;2023-12-07T10:09:40;101949.22;;;4.02;84.49
64298;BME280;50639;53.270;7.956;2023-12-07T10:12:06;101960.31;;;4.04;83.60
64298;BME280;50639;53.270;7.956;2023-12-07T10:14:32;101951.72;;;4.05;83.08
64298;BME280;50639;53.270;7.956;2023-12-07T10:16:59;101950.88;;;4.06;82.79
64298;BME280;50639;53.270;7.956;2023-12-07T10:19:25;101945.69;;;4.09;83.10
64298;BME280;50639;53.270;7.956;2023-12-07T10:21:51;101947.31;;;4.13;83.24
64298;BME280;50639;53.270;7.956;2023-12-07T10:24:21;101939.56;;;4.20;83.38
64298;BME280;50639;53.270;7.956;2023-12-07T10:26:47;101936.13;;;4.22;83.37
64298;BME280;50639;53.270;7.956;2023-12-07T10:29:13;101929.19;;;4.27;82.55
64298;BME280;50639;53.270;7.956;2023-12-07T10:31:39;101931.72;;;4.29;82.70
64298;BME280;50639;53.270;7.956;2023-12-07T10:34:05;101933.31;;;4.34;82.27
64298;BME280;50639;53.270;7.956;2023-12-07T10:36:31;101935.88;;;4.34;82.61
64298;BME280;50639;53.270;7.956;2023-12-07T10:38:58;101934.16;;;4.36;82.96
64298;BME280;50639;53.270;7.956;2023-12-07T10:41:29;101932.31;;;4.43;82.19
64298;BME280;50639;53.270;7.956;2023-12-07T10:44:00;101922.88;;;4.45;82.90
64298;BME280;50639;53.270;7.956;2023-12-07T10:46:26;101925.41;;;4.48;82.72
64298;BME280;50639;53.270;7.956;2023-12-07T10:48:57;101921.91;;;4.52;82.26
64298;BME280;50639;53.270;7.956;2023-12-07T10:51:34;101920.94;;;4.58;82.23
64298;BME280;50639;53.270;7.956;2023-12-07T10:54:04;101919.94;;;4.66;82.21
64298;BME280;50639;53.270;7.956;2023-12-07T10:56:42;101920.78;;;4.67;82.13
64298;BME280;50639;53.270;7.956;2023-12-07T10:59:12;101910.59;;;4.64;81.81
64298;BME280;50639;53.270;7.956;2023-12-07T11:01:42;101910.47;;;4.68;82.41
64298;BME280;50639;53.270;7.956;2023-12-07T11:04:11;101916.41;;;4.73;81.20
64298;BME280;50639;53.270;7.956;2023-12-07T11:06:37;101914.56;;;4.78;81.58
64298;BME280;50639;53.270;7.956;2023-12-07T11:09:08;101912.00;;;4.80;80.79
64298;BME280;50639;53.270;7.956;2023-12-07T11:11:39;101907.72;;;4.79;81.22
64298;BME280;50639;53.270;7.956;2023-12-07T11:14:08;101902.44;;;4.86;80.83
64298;BME280;50639;53.270;7.956;2023-12-07T11:16:41;101904.34;;;4.75;81.00
64298;BME280;50639;53.270;7.956;2023-12-07T11:19:43;101896.19;;;4.57;81.35
64298;BME280;50639;53.270;7.956;2023-12-07T11:22:12;101890.09;;;4.62;81.93
64298;BME280;50639;53.270;7.956;2023-12-07T11:24:38;101890.81;;;4.69;81.67
64298;BME280;50639;53.270;7.956;2023-12-07T11:27:04;101889.41;;;4.52;82.03
64298;BME280;50639;53.270;7.956;2023-12-07T11:29:30;101890.75;;;4.72;81.58
64298;BME280;50639;53.270;7.956;2023-12-07T11:32:02;101877.41;;;4.54;81.30
64298;BME280;50639;53.270;7.956;2023-12-07T11:34:42;101875.78;;;4.49;81.41
64298;BME280;50639;53.270;7.956;2023-12-07T11:37:09;101868.00;;;4.55;81.70
64298;BME280;50639;53.270;7.956;2023-12-07T11:39:36;101873.13;;;4.55;81.71
64298;BME280;50639;53.270;7.956;2023-12-07T11:42:11;101875.59;;;4.60;81.19
64298;BME280;50639;53.270;7.956;2023-12-07T11:44:39;101879.13;;;4.54;81.55
64298;BME280;50639;53.270;7.956;2023-12-07T11:47:06;101881.06;;;4.40;81.68
64298;BME280;50639;53.270;7.956;2023-12-07T11:49:32;101877.97;;;4.23;82.43
64298;BME280;50639;53.270;7.956;2023-12-07T11:51:58;101877.75;;;4.35;81.98
64298;BME280;50639;53.270;7.956;2023-12-07T11:54:25;101874.38;;;4.33;82.21
64298;BME280;50639;53.270;7.956;2023-12-07T11:56:57;101873.38;;;4.40;82.36
64298;BME280;50639;53.270;7.956;2023-12-07T11:59:23;101876.00;;;4.37;82.02
64298;BME280;50639;53.270;7.956;2023-12-07T12:01:51;101876.63;;;4.49;82.32
64298;BME280;50639;53.270;7.956;2023-12-07T12:04:17;101864.66;;;4.50;81.72
64298;BME280;50639;53.270;7.956;2023-12-07T12:06:45;101870.78;;;4.41;81.38
64298;BME280;50639;53.270;7.956;2023-12-07T12:09:14;101879.13;;;4.54;81.54
64298;BME280;50639;53.270;7.956;2023-12-07T12:11:49;101872.13;;;4.62;81.94
64298;BME280;50639;53.270;7.956;2023-12-07T12:14:15;101875.59;;;4.58;81.30
64298;BME280;50639;53.270;7.956;2023-12-07T12:16:48;101858.56;;;4.57;81.44
64298;BME280;50639;53.270;7.956;2023-12-07T12:19:13;101864.63;;;4.51;81.70
64298;BME280;50639;53.270;7.956;2023-12-07T12:21:42;101870.38;;;4.64;81.58
64298;BME280;50639;53.270;7.956;2023-12-07T12:24:15;101856.59;;;4.68;81.62
64298;BME280;50639;53.270;7.956;2023-12-07T12:26:42;101859.09;;;4.73;80.95
64298;BME280;50639;53.270;7.956;2023-12-07T12:29:08;101868.56;;;4.69;81.54
64298;BME280;50639;53.270;7.956;2023-12-07T12:31:35;101865.31;;;4.61;81.56
64298;BME280;50639;53.270;7.956;2023-12-07T12:34:01;101867.50;;;4.81;81.26
64298;BME280;50639;53.270;7.956;2023-12-07T12:36:27;101862.56;;;4.70;81.29
64298;BME280;50639;53.270;7.956;2023-12-07T12:38:54;101859.91;;;4.75;80.58
64298;BME280;50639;53.270;7.956;2023-12-07T12:41:21;101857.41;;;4.72;81.38
64298;BME280;50639;53.270;7.956;2023-12-07T12:43:47;101852.44;;;4.63;80.99
64298;BME280;50639;53.270;7.956;2023-12-07T12:46:14;101852.16;;;4.76;81.27
64298;BME280;50639;53.270;7.956;2023-12-07T12:48:57;101854.72;;;4.76;81.26
64298;BME280;50639;53.270;7.956;2023-12-07T12:51:24;101848.84;;;4.71;81.26
64298;BME280;50639;53.270;7.956;2023-12-07T12:53:51;101847.28;;;4.64;81.42
64298;BME280;50639;53.270;7.956;2023-12-07T12:56:21;101842.91;;;4.69;81.64
64298;BME280;50639;53.270;7.956;2023-12-07T12:58:50;101842.72;;;4.78;81.73
64298;BME280;50639;53.270;7.956;2023-12-07T13:01:17;101834.84;;;4.87;81.53